sensor_id;sensor_type;location;lat;lon;timestamp;temperature;humidity
78694;SHT31;68029;51.978;5.646;2023-03-04T00:00:23;9.5;52.7
78694;SHT31;68029;51.978;5.646;2023-03-04T00:02:53;9.5;52.8
78694;SHT31;68029;51.978;5.646;2023-03-04T00:05:22;9.5;53.1
78694;SHT31;68029;51.978;5.646;2023-03-04T00:07:52;9.5;52.7
78694;SHT31;68029;51.978;5.646;2023-03-04T00:10:21;9.5;52.9
78694;SHT31;68029;51.978;5.646;2023-03-04T00:12:51;9.5;53.3
78694;SHT31;68029;51.978;5.646;2023-03-04T00:15:20;9.5;53.5
78694;SHT31;68029;51.978;5.646;2023-03-04T00:17:50;9.5;53.6
78694;SHT31;68029;51.978;5.646;2023-03-04T00:20:19;9.5;53.7
78694;SHT31;68029;51.978;5.646;2023-03-04T00:22:51;9.5;53.6
78694;SHT31;68029;51.978;5.646;2023-03-04T00:25:20;9.5;53.3
78694;SHT31;68029;51.978;5.646;2023-03-04T00:27:50;9.5;53.3
78694;SHT31;68029;51.978;5.646;2023-03-04T00:30:20;9.5;53.4
78694;SHT31;68029;51.978;5.646;2023-03-04T00:32:49;9.5;53.6
78694;SHT31;68029;51.978;5.646;2023-03-04T00:35:19;9.5;53.5
78694;SHT31;68029;51.978;5.646;2023-03-04T00:37:48;9.5;53.5
78694;SHT31;68029;51.978;5.646;2023-03-04T00:40:18;9.5;53.3
78694;SHT31;68029;51.978;5.646;2023-03-04T00:42:47;9.4;53.4
78694;SHT31;68029;51.978;5.646;2023-03-04T00:45:17;9.4;53.6
78694;SHT31;68029;51.978;5.646;2023-03-04T00:47:47;9.4;53.6
78694;SHT31;68029;51.978;5.646;2023-03-04T00:50:16;9.4;53.5
78694;SHT31;68029;51.978;5.646;2023-03-04T00:52:46;9.4;53.8
78694;SHT31;68029;51.978;5.646;2023-03-04T00:55:17;9.4;54.0
78694;SHT31;68029;51.978;5.646;2023-03-04T00:57:47;9.4;53.9
78694;SHT31;68029;51.978;5.646;2023-03-04T01:00:19;9.4;54.3
78694;SHT31;68029;51.978;5.646;2023-03-04T01:02:49;9.4;54.5
78694;SHT31;68029;51.978;5.646;2023-03-04T01:05:18;9.4;54.5
78694;SHT31;68029;51.978;5.646;2023-03-04T01:07:48;9.4;54.2
78694;SHT31;68029;51.978;5.646;2023-03-04T01:10:17;9.4;54.0
78694;SHT31;68029;51.978;5.646;2023-03-04T01:12:47;9.4;54.1
78694;SHT31;68029;51.978;5.646;2023-03-04T01:15:17;9.4;54.0
78694;SHT31;68029;51.978;5.646;2023-03-04T01:17:46;9.3;54.3
78694;SHT31;68029;51.978;5.646;2023-03-04T01:20:16;9.3;54.2
78694;SHT31;68029;51.978;5.646;2023-03-04T01:22:46;9.3;54.8
78694;SHT31;68029;51.978;5.646;2023-03-04T01:25:15;9.3;54.8
78694;SHT31;68029;51.978;5.646;2023-03-04T01:27:45;9.3;54.9
78694;SHT31;68029;51.978;5.646;2023-03-04T01:30:14;9.3;55.0
78694;SHT31;68029;51.978;5.646;2023-03-04T01:32:44;9.4;55.0
78694;SHT31;68029;51.978;5.646;2023-03-04T01:35:13;9.4;55.1
78694;SHT31;68029;51.978;5.646;2023-03-04T01:37:45;9.3;55.4
78694;SHT31;68029;51.978;5.646;2023-03-04T01:40:17;9.3;54.9
78694;SHT31;68029;51.978;5.646;2023-03-04T01:42:46;9.3;54.4
78694;SHT31;68029;51.978;5.646;2023-03-04T01:45:18;9.3;54.7
78694;SHT31;68029;51.978;5.646;2023-03-04T01:47:49;9.3;54.8
78694;SHT31;68029;51.978;5.646;2023-03-04T01:50:25;9.2;54.7
78694;SHT31;68029;51.978;5.646;2023-03-04T01:52:55;9.2;54.5
78694;SHT31;68029;51.978;5.646;2023-03-04T01:55:28;9.2;54.6
78694;SHT31;68029;51.978;5.646;2023-03-04T01:57:58;9.1;54.4
78694;SHT31;68029;51.978;5.646;2023-03-04T02:00:31;9.1;54.5
78694;SHT31;68029;51.978;5.646;2023-03-04T02:03:05;9.1;54.6
78694;SHT31;68029;51.978;5.646;2023-03-04T02:05:37;9.1;54.7
78694;SHT31;68029;51.978;5.646;2023-03-04T02:08:08;9.1;54.9
78694;SHT31;68029;51.978;5.646;2023-03-04T02:10:39;9.0;55.1
78694;SHT31;68029;51.978;5.646;2023-03-04T02:13:11;9.0;55.2
78694;SHT31;68029;51.978;5.646;2023-03-04T02:15:43;9.0;55.4
78694;SHT31;68029;51.978;5.646;2023-03-04T02:18:17;9.0;55.7
78694;SHT31;68029;51.978;5.646;2023-03-04T02:20:59;9.0;55.7
78694;SHT31;68029;51.978;5.646;2023-03-04T02:23:37;9.0;55.1
78694;SHT31;68029;51.978;5.646;2023-03-04T02:26:12;9.0;54.9
78694;SHT31;68029;51.978;5.646;2023-03-04T02:28:42;9.0;54.5
78694;SHT31;68029;51.978;5.646;2023-03-04T02:31:24;9.0;54.1
78694;SHT31;68029;51.978;5.646;2023-03-04T02:33:56;9.0;54.2
78694;SHT31;68029;51.978;5.646;2023-03-04T02:36:26;9.0;54.6
78694;SHT31;68029;51.978;5.646;2023-03-04T02:39:02;9.0;54.6
78694;SHT31;68029;51.978;5.646;2023-03-04T02:41:32;9.0;54.8
78694;SHT31;68029;51.978;5.646;2023-03-04T02:44:10;9.0;54.5
78694;SHT31;68029;51.978;5.646;2023-03-04T02:46:44;9.0;53.8
78694;SHT31;68029;51.978;5.646;2023-03-04T02:49:14;9.0;53.8
78694;SHT31;68029;51.978;5.646;2023-03-04T02:51:43;9.0;53.9
78694;SHT31;68029;51.978;5.646;2023-03-04T02:54:17;8.9;54.1
78694;SHT31;68029;51.978;5.646;2023-03-04T02:56:48;8.9;54.1
78694;SHT31;68029;51.978;5.646;2023-03-04T02:59:20;8.9;54.5
78694;SHT31;68029;51.978;5.646;2023-03-04T03:01:50;8.9;54.6
78694;SHT31;68029;51.978;5.646;2023-03-04T03:04:22;8.9;54.7
78694;SHT31;68029;51.978;5.646;2023-03-04T03:06:52;9.0;54.5
78694;SHT31;68029;51.978;5.646;2023-03-04T03:09:22;9.0;54.8
78694;SHT31;68029;51.978;5.646;2023-03-04T03:11:52;9.0;54.7
78694;SHT31;68029;51.978;5.646;2023-03-04T03:14:21;9.1;54.8
78694;SHT31;68029;51.978;5.646;2023-03-04T03:16:51;9.1;55.1
78694;SHT31;68029;51.978;5.646;2023-03-04T03:19:20;9.1;54.9
78694;SHT31;68029;51.978;5.646;2023-03-04T03:21:50;9.1;54.9
78694;SHT31;68029;51.978;5.646;2023-03-04T03:24:19;9.1;55.1
78694;SHT31;68029;51.978;5.646;2023-03-04T03:26:50;9.1;55.2
78694;SHT31;68029;51.978;5.646;2023-03-04T03:29:20;9.1;55.2
78694;SHT31;68029;51.978;5.646;2023-03-04T03:31:49;9.1;55.6
78694;SHT31;68029;51.978;5.646;2023-03-04T03:34:19;9.1;55.3
78694;SHT31;68029;51.978;5.646;2023-03-04T03:36:49;9.1;55.3
78694;SHT31;68029;51.978;5.646;2023-03-04T03:39:18;9.1;55.1
78694;SHT31;68029;51.978;5.646;2023-03-04T03:41:48;9.1;55.1
78694;SHT31;68029;51.978;5.646;2023-03-04T03:44:18;9.1;55.1
78694;SHT31;68029;51.978;5.646;2023-03-04T03:46:47;9.1;54.9
78694;SHT31;68029;51.978;5.646;2023-03-04T03:49:17;9.1;54.7
78694;SHT31;68029;51.978;5.646;2023-03-04T03:51:46;9.0;54.6
78694;SHT31;68029;51.978;5.646;2023-03-04T03:54:16;9.0;54.1
78694;SHT31;68029;51.978;5.646;2023-03-04T03:56:45;9.0;53.9
78694;SHT31;68029;51.978;5.646;2023-03-04T03:59:15;8.9;54.0
78694;SHT31;68029;51.978;5.646;2023-03-04T04:01:44;8.9;54.1
78694;SHT31;68029;51.978;5.646;2023-03-04T04:04:14;8.9;54.4
78694;SHT31;68029;51.978;5.646;2023-03-04T04:06:43;8.9;54.4
78694;SHT31;68029;51.978;5.646;2023-03-04T04:09:13;8.9;54.4
78694;SHT31;68029;51.978;5.646;2023-03-04T04:11:42;8.9;54.7
78694;SHT31;68029;51.978;5.646;2023-03-04T04:14:13;8.9;54.7
78694;SHT31;68029;51.978;5.646;2023-03-04T04:16:43;8.9;54.7
78694;SHT31;68029;51.978;5.646;2023-03-04T04:19:16;8.9;55.2
78694;SHT31;68029;51.978;5.646;2023-03-04T04:21:47;9.0;54.8
78694;SHT31;68029;51.978;5.646;2023-03-04T04:24:18;9.0;54.8
78694;SHT31;68029;51.978;5.646;2023-03-04T04:26:47;9.0;54.6
78694;SHT31;68029;51.978;5.646;2023-03-04T04:29:17;9.0;54.8
78694;SHT31;68029;51.978;5.646;2023-03-04T04:31:47;9.0;54.9
78694;SHT31;68029;51.978;5.646;2023-03-04T04:34:17;9.0;54.9
78694;SHT31;68029;51.978;5.646;2023-03-04T04:36:46;9.0;55.3
78694;SHT31;68029;51.978;5.646;2023-03-04T04:39:15;9.0;55.3
78694;SHT31;68029;51.978;5.646;2023-03-04T04:41:45;9.0;55.2
78694;SHT31;68029;51.978;5.646;2023-03-04T04:44:15;9.0;55.2
78694;SHT31;68029;51.978;5.646;2023-03-04T04:46:44;9.0;55.1
78694;SHT31;68029;51.978;5.646;2023-03-04T04:49:14;9.0;55.6
78694;SHT31;68029;51.978;5.646;2023-03-04T04:51:43;9.0;55.7
78694;SHT31;68029;51.978;5.646;2023-03-04T04:54:14;9.0;55.4
78694;SHT31;68029;51.978;5.646;2023-03-04T04:56:43;8.9;55.6
78694;SHT31;68029;51.978;5.646;2023-03-04T04:59:13;8.9;55.7
78694;SHT31;68029;51.978;5.646;2023-03-04T05:01:43;8.9;55.7
78694;SHT31;68029;51.978;5.646;2023-03-04T05:04:12;8.9;55.8
78694;SHT31;68029;51.978;5.646;2023-03-04T05:06:41;8.9;56.0
78694;SHT31;68029;51.978;5.646;2023-03-04T05:09:12;8.9;56.2
78694;SHT31;68029;51.978;5.646;2023-03-04T05:11:41;8.9;56.0
78694;SHT31;68029;51.978;5.646;2023-03-04T05:14:11;8.9;55.7
78694;SHT31;68029;51.978;5.646;2023-03-04T05:16:40;8.9;55.8
78694;SHT31;68029;51.978;5.646;2023-03-04T05:19:10;8.8;55.8
78694;SHT31;68029;51.978;5.646;2023-03-04T05:21:39;8.8;55.8
78694;SHT31;68029;51.978;5.646;2023-03-04T05:24:11;8.8;56.2
78694;SHT31;68029;51.978;5.646;2023-03-04T05:26:41;8.8;56.2
78694;SHT31;68029;51.978;5.646;2023-03-04T05:29:10;8.8;56.0
78694;SHT31;68029;51.978;5.646;2023-03-04T05:31:39;8.8;55.5
78694;SHT31;68029;51.978;5.646;2023-03-04T05:34:09;8.7;55.6
78694;SHT31;68029;51.978;5.646;2023-03-04T05:36:38;8.7;55.7
78694;SHT31;68029;51.978;5.646;2023-03-04T05:39:09;8.7;55.9
78694;SHT31;68029;51.978;5.646;2023-03-04T05:41:39;8.7;56.5
78694;SHT31;68029;51.978;5.646;2023-03-04T05:44:09;8.7;56.5
78694;SHT31;68029;51.978;5.646;2023-03-04T05:46:38;8.7;56.5
78694;SHT31;68029;51.978;5.646;2023-03-04T05:49:09;8.7;56.7
78694;SHT31;68029;51.978;5.646;2023-03-04T05:51:39;8.7;57.0
78694;SHT31;68029;51.978;5.646;2023-03-04T05:54:08;8.7;57.2
78694;SHT31;68029;51.978;5.646;2023-03-04T05:56:38;8.7;57.4
78694;SHT31;68029;51.978;5.646;2023-03-04T05:59:08;8.7;57.3
78694;SHT31;68029;51.978;5.646;2023-03-04T06:01:37;8.7;57.7
78694;SHT31;68029;51.978;5.646;2023-03-04T06:04:07;8.7;57.7
78694;SHT31;68029;51.978;5.646;2023-03-04T06:06:36;8.7;57.6
78694;SHT31;68029;51.978;5.646;2023-03-04T06:09:06;8.7;58.0
78694;SHT31;68029;51.978;5.646;2023-03-04T06:11:35;8.7;57.9
78694;SHT31;68029;51.978;5.646;2023-03-04T06:14:05;8.7;57.6
78694;SHT31;68029;51.978;5.646;2023-03-04T06:16:34;8.7;57.8
78694;SHT31;68029;51.978;5.646;2023-03-04T06:19:04;8.7;58.3
78694;SHT31;68029;51.978;5.646;2023-03-04T06:21:33;8.7;58.1
78694;SHT31;68029;51.978;5.646;2023-03-04T06:24:03;8.7;58.2
78694;SHT31;68029;51.978;5.646;2023-03-04T06:26:33;8.6;58.6
78694;SHT31;68029;51.978;5.646;2023-03-04T06:29:03;8.7;58.8
78694;SHT31;68029;51.978;5.646;2023-03-04T06:31:32;8.7;58.4
78694;SHT31;68029;51.978;5.646;2023-03-04T06:34:02;8.7;58.5
78694;SHT31;68029;51.978;5.646;2023-03-04T06:36:32;8.7;58.6
78694;SHT31;68029;51.978;5.646;2023-03-04T06:39:03;8.8;58.8
78694;SHT31;68029;51.978;5.646;2023-03-04T06:41:33;8.8;58.7
78694;SHT31;68029;51.978;5.646;2023-03-04T06:44:04;8.8;58.6
78694;SHT31;68029;51.978;5.646;2023-03-04T06:46:34;8.8;58.2
78694;SHT31;68029;51.978;5.646;2023-03-04T06:49:04;8.9;57.9
78694;SHT31;68029;51.978;5.646;2023-03-04T06:51:33;8.9;58.4
78694;SHT31;68029;51.978;5.646;2023-03-04T06:54:03;8.9;58.5
78694;SHT31;68029;51.978;5.646;2023-03-04T06:56:32;8.9;58.3
78694;SHT31;68029;51.978;5.646;2023-03-04T06:59:02;8.9;58.5
78694;SHT31;68029;51.978;5.646;2023-03-04T07:01:32;8.9;58.5
78694;SHT31;68029;51.978;5.646;2023-03-04T07:04:02;8.9;58.6
78694;SHT31;68029;51.978;5.646;2023-03-04T07:06:32;8.9;59.0
78694;SHT31;68029;51.978;5.646;2023-03-04T07:09:02;8.9;59.3
78694;SHT31;68029;51.978;5.646;2023-03-04T07:11:32;8.9;59.6
78694;SHT31;68029;51.978;5.646;2023-03-04T07:14:01;8.9;59.7
78694;SHT31;68029;51.978;5.646;2023-03-04T07:16:31;8.8;59.8
78694;SHT31;68029;51.978;5.646;2023-03-04T07:19:00;8.8;60.3
78694;SHT31;68029;51.978;5.646;2023-03-04T07:21:30;8.8;61.1
78694;SHT31;68029;51.978;5.646;2023-03-04T07:23:59;8.8;62.0
78694;SHT31;68029;51.978;5.646;2023-03-04T07:26:29;8.8;62.5
78694;SHT31;68029;51.978;5.646;2023-03-04T07:28:59;8.8;63.1
78694;SHT31;68029;51.978;5.646;2023-03-04T07:31:31;8.8;63.5
78694;SHT31;68029;51.978;5.646;2023-03-04T07:34:03;8.8;64.2
78694;SHT31;68029;51.978;5.646;2023-03-04T07:36:35;8.8;64.2
78694;SHT31;68029;51.978;5.646;2023-03-04T07:39:06;8.8;64.3
78694;SHT31;68029;51.978;5.646;2023-03-04T07:41:35;8.8;64.7
78694;SHT31;68029;51.978;5.646;2023-03-04T07:44:07;8.8;64.2
78694;SHT31;68029;51.978;5.646;2023-03-04T07:46:39;8.8;64.3
78694;SHT31;68029;51.978;5.646;2023-03-04T07:49:10;8.9;64.3
78694;SHT31;68029;51.978;5.646;2023-03-04T07:51:40;8.9;64.3
78694;SHT31;68029;51.978;5.646;2023-03-04T07:54:10;8.9;64.7
78694;SHT31;68029;51.978;5.646;2023-03-04T07:56:40;8.9;65.2
78694;SHT31;68029;51.978;5.646;2023-03-04T07:59:09;8.9;65.5
78694;SHT31;68029;51.978;5.646;2023-03-04T08:01:39;9.0;66.1
78694;SHT31;68029;51.978;5.646;2023-03-04T08:04:08;9.0;65.3
78694;SHT31;68029;51.978;5.646;2023-03-04T08:06:40;9.1;64.6
78694;SHT31;68029;51.978;5.646;2023-03-04T08:09:11;9.1;64.6
78694;SHT31;68029;51.978;5.646;2023-03-04T08:11:41;9.1;64.2
78694;SHT31;68029;51.978;5.646;2023-03-04T08:14:12;9.2;63.7
78694;SHT31;68029;51.978;5.646;2023-03-04T08:16:42;9.2;63.7
78694;SHT31;68029;51.978;5.646;2023-03-04T08:19:13;9.2;64.0
78694;SHT31;68029;51.978;5.646;2023-03-04T08:21:42;9.2;63.2
78694;SHT31;68029;51.978;5.646;2023-03-04T08:24:12;9.3;63.2
78694;SHT31;68029;51.978;5.646;2023-03-04T08:26:45;9.3;63.4
78694;SHT31;68029;51.978;5.646;2023-03-04T08:29:17;9.3;63.0
78694;SHT31;68029;51.978;5.646;2023-03-04T08:31:48;9.3;62.6
78694;SHT31;68029;51.978;5.646;2023-03-04T08:34:18;9.3;62.8
78694;SHT31;68029;51.978;5.646;2023-03-04T08:36:48;9.2;63.4
78694;SHT31;68029;51.978;5.646;2023-03-04T08:39:18;9.2;63.4
78694;SHT31;68029;51.978;5.646;2023-03-04T08:41:50;9.2;63.1
78694;SHT31;68029;51.978;5.646;2023-03-04T08:44:19;9.2;63.4
78694;SHT31;68029;51.978;5.646;2023-03-04T08:46:49;9.2;63.9
78694;SHT31;68029;51.978;5.646;2023-03-04T08:49:18;9.2;64.0
78694;SHT31;68029;51.978;5.646;2023-03-04T08:51:48;9.2;63.4
78694;SHT31;68029;51.978;5.646;2023-03-04T08:54:19;9.2;63.5
78694;SHT31;68029;51.978;5.646;2023-03-04T08:56:49;9.2;63.2
78694;SHT31;68029;51.978;5.646;2023-03-04T08:59:18;9.3;63.0
78694;SHT31;68029;51.978;5.646;2023-03-04T09:01:48;9.3;63.0
78694;SHT31;68029;51.978;5.646;2023-03-04T09:04:17;9.3;63.1
78694;SHT31;68029;51.978;5.646;2023-03-04T09:06:47;9.3;63.2
78694;SHT31;68029;51.978;5.646;2023-03-04T09:09:16;9.3;63.6
78694;SHT31;68029;51.978;5.646;2023-03-04T09:11:45;9.3;63.5
78694;SHT31;68029;51.978;5.646;2023-03-04T09:14:15;9.3;63.5
78694;SHT31;68029;51.978;5.646;2023-03-04T09:16:44;9.4;63.2
78694;SHT31;68029;51.978;5.646;2023-03-04T09:19:14;9.3;64.3
78694;SHT31;68029;51.978;5.646;2023-03-04T09:21:43;9.3;66.0
78694;SHT31;68029;51.978;5.646;2023-03-04T09:24:13;9.3;66.4
78694;SHT31;68029;51.978;5.646;2023-03-04T09:26:44;9.3;66.7
78694;SHT31;68029;51.978;5.646;2023-03-04T09:29:20;9.3;66.5
78694;SHT31;68029;51.978;5.646;2023-03-04T09:31:49;9.3;67.1
78694;SHT31;68029;51.978;5.646;2023-03-04T09:34:19;9.3;67.3
78694;SHT31;68029;51.978;5.646;2023-03-04T09:36:50;9.3;67.2
78694;SHT31;68029;51.978;5.646;2023-03-04T09:39:20;9.4;67.4
78694;SHT31;68029;51.978;5.646;2023-03-04T09:41:52;9.4;67.3
78694;SHT31;68029;51.978;5.646;2023-03-04T09:44:28;9.4;66.9
78694;SHT31;68029;51.978;5.646;2023-03-04T09:47:02;9.4;67.1
78694;SHT31;68029;51.978;5.646;2023-03-04T09:49:37;9.5;67.3
78694;SHT31;68029;51.978;5.646;2023-03-04T09:52:17;9.6;67.3
78694;SHT31;68029;51.978;5.646;2023-03-04T09:55:02;9.6;66.2
78694;SHT31;68029;51.978;5.646;2023-03-04T09:57:46;9.7;66.6
78694;SHT31;68029;51.978;5.646;2023-03-04T10:00:21;9.8;65.1
78694;SHT31;68029;51.978;5.646;2023-03-04T10:03:04;9.9;65.4
78694;SHT31;68029;51.978;5.646;2023-03-04T10:05:39;9.9;64.8
78694;SHT31;68029;51.978;5.646;2023-03-04T10:08:25;10.0;64.9
78694;SHT31;68029;51.978;5.646;2023-03-04T10:10:59;10.1;63.7
78694;SHT31;68029;51.978;5.646;2023-03-04T10:13:34;10.2;62.7
78694;SHT31;68029;51.978;5.646;2023-03-04T10:16:13;10.3;62.2
78694;SHT31;68029;51.978;5.646;2023-03-04T10:18:48;10.4;62.1
78694;SHT31;68029;51.978;5.646;2023-03-04T10:21:25;10.5;61.8
78694;SHT31;68029;51.978;5.646;2023-03-04T10:23:59;10.6;60.9
78694;SHT31;68029;51.978;5.646;2023-03-04T10:26:30;10.7;60.5
78694;SHT31;68029;51.978;5.646;2023-03-04T10:29:01;10.8;60.5
78694;SHT31;68029;51.978;5.646;2023-03-04T10:31:35;10.8;60.1
78694;SHT31;68029;51.978;5.646;2023-03-04T10:34:13;10.9;60.6
78694;SHT31;68029;51.978;5.646;2023-03-04T10:36:50;10.9;61.3
78694;SHT31;68029;51.978;5.646;2023-03-04T10:39:25;10.9;61.0
78694;SHT31;68029;51.978;5.646;2023-03-04T10:41:58;10.9;61.4
78694;SHT31;68029;51.978;5.646;2023-03-04T10:44:29;10.9;60.7
78694;SHT31;68029;51.978;5.646;2023-03-04T10:47:01;10.9;60.7
78694;SHT31;68029;51.978;5.646;2023-03-04T10:49:30;11.0;61.4
78694;SHT31;68029;51.978;5.646;2023-03-04T10:52:16;11.0;60.8
78694;SHT31;68029;51.978;5.646;2023-03-04T10:54:49;11.1;61.4
78694;SHT31;68029;51.978;5.646;2023-03-04T10:57:25;11.1;61.5
78694;SHT31;68029;51.978;5.646;2023-03-04T10:59:57;11.1;62.1
78694;SHT31;68029;51.978;5.646;2023-03-04T11:02:30;11.1;61.5
78694;SHT31;68029;51.978;5.646;2023-03-04T11:05:18;11.2;62.9
78694;SHT31;68029;51.978;5.646;2023-03-04T11:07:51;11.2;62.6
78694;SHT31;68029;51.978;5.646;2023-03-04T11:10:23;11.2;63.0
78694;SHT31;68029;51.978;5.646;2023-03-04T11:13:01;11.1;63.6
78694;SHT31;68029;51.978;5.646;2023-03-04T11:15:47;11.2;63.2
78694;SHT31;68029;51.978;5.646;2023-03-04T11:18:19;11.2;62.8
78694;SHT31;68029;51.978;5.646;2023-03-04T11:20:54;11.3;63.5
78694;SHT31;68029;51.978;5.646;2023-03-04T11:23:29;11.5;61.8
78694;SHT31;68029;51.978;5.646;2023-03-04T11:26:03;11.8;59.8
78694;SHT31;68029;51.978;5.646;2023-03-04T11:28:43;12.0;58.8
78694;SHT31;68029;51.978;5.646;2023-03-04T11:31:17;12.1;58.4
78694;SHT31;68029;51.978;5.646;2023-03-04T11:33:54;12.2;58.3
78694;SHT31;68029;51.978;5.646;2023-03-04T11:36:34;12.3;57.9
78694;SHT31;68029;51.978;5.646;2023-03-04T11:39:15;12.4;56.4
78694;SHT31;68029;51.978;5.646;2023-03-04T11:41:55;12.5;56.1
78694;SHT31;68029;51.978;5.646;2023-03-04T11:44:25;12.6;55.3
78694;SHT31;68029;51.978;5.646;2023-03-04T11:47:04;12.6;55.2
78694;SHT31;68029;51.978;5.646;2023-03-04T11:49:52;12.6;56.6
78694;SHT31;68029;51.978;5.646;2023-03-04T11:52:49;12.6;57.8
78694;SHT31;68029;51.978;5.646;2023-03-04T11:55:31;12.4;58.7
78694;SHT31;68029;51.978;5.646;2023-03-04T11:58:18;12.3;59.6
78694;SHT31;68029;51.978;5.646;2023-03-04T12:00:56;12.1;60.2
78694;SHT31;68029;51.978;5.646;2023-03-04T12:04:02;12.0;60.9
78694;SHT31;68029;51.978;5.646;2023-03-04T12:06:47;11.9;60.5
78694;SHT31;68029;51.978;5.646;2023-03-04T12:09:34;11.8;60.2
78694;SHT31;68029;51.978;5.646;2023-03-04T12:12:24;11.7;61.0
78694;SHT31;68029;51.978;5.646;2023-03-04T12:15:03;11.6;61.8
78694;SHT31;68029;51.978;5.646;2023-03-04T12:17:53;11.6;61.4
78694;SHT31;68029;51.978;5.646;2023-03-04T12:21:14;11.6;61.0
78694;SHT31;68029;51.978;5.646;2023-03-04T12:24:02;11.6;61.2
78694;SHT31;68029;51.978;5.646;2023-03-04T12:26:37;11.7;62.5
78694;SHT31;68029;51.978;5.646;2023-03-04T12:29:17;11.9;60.8
78694;SHT31;68029;51.978;5.646;2023-03-04T12:31:58;12.1;60.5
78694;SHT31;68029;51.978;5.646;2023-03-04T12:34:37;12.4;59.4
78694;SHT31;68029;51.978;5.646;2023-03-04T12:37:32;12.8;58.3
78694;SHT31;68029;51.978;5.646;2023-03-04T12:40:20;13.1;55.9
78694;SHT31;68029;51.978;5.646;2023-03-04T12:43:00;13.4;53.4
78694;SHT31;68029;51.978;5.646;2023-03-04T12:45:42;13.5;52.5
78694;SHT31;68029;51.978;5.646;2023-03-04T12:48:25;13.5;52.6
78694;SHT31;68029;51.978;5.646;2023-03-04T12:51:04;13.5;52.5
78694;SHT31;68029;51.978;5.646;2023-03-04T12:53:44;13.3;51.2
78694;SHT31;68029;51.978;5.646;2023-03-04T12:56:24;13.2;50.9
78694;SHT31;68029;51.978;5.646;2023-03-04T12:58:58;13.0;51.0
78694;SHT31;68029;51.978;5.646;2023-03-04T13:01:33;12.9;52.4
78694;SHT31;68029;51.978;5.646;2023-03-04T13:04:11;12.8;52.7
78694;SHT31;68029;51.978;5.646;2023-03-04T13:06:52;12.8;51.8
78694;SHT31;68029;51.978;5.646;2023-03-04T13:09:29;12.7;51.9
78694;SHT31;68029;51.978;5.646;2023-03-04T13:12:10;12.7;50.7
78694;SHT31;68029;51.978;5.646;2023-03-04T13:14:38;12.7;52.1
78694;SHT31;68029;51.978;5.646;2023-03-04T13:17:39;12.7;51.7
78694;SHT31;68029;51.978;5.646;2023-03-04T13:20:21;12.7;50.9
78694;SHT31;68029;51.978;5.646;2023-03-04T13:22:54;12.7;50.9
78694;SHT31;68029;51.978;5.646;2023-03-04T13:25:35;12.8;49.8
78694;SHT31;68029;51.978;5.646;2023-03-04T13:28:22;12.8;49.7
78694;SHT31;68029;51.978;5.646;2023-03-04T13:32:43;12.9;50.0
78694;SHT31;68029;51.978;5.646;2023-03-04T13:35:49;13.0;47.9
78694;SHT31;68029;51.978;5.646;2023-03-04T13:38:33;13.0;48.2
78694;SHT31;68029;51.978;5.646;2023-03-04T13:41:14;13.0;48.2
78694;SHT31;68029;51.978;5.646;2023-03-04T13:43:45;13.0;48.3
78694;SHT31;68029;51.978;5.646;2023-03-04T13:47:20;12.9;48.0
78694;SHT31;68029;51.978;5.646;2023-03-04T13:50:18;12.8;49.3
78694;SHT31;68029;51.978;5.646;2023-03-04T13:52:49;12.7;49.8
78694;SHT31;68029;51.978;5.646;2023-03-04T13:55:34;12.6;50.2
78694;SHT31;68029;51.978;5.646;2023-03-04T13:58:17;12.5;50.6
78694;SHT31;68029;51.978;5.646;2023-03-04T14:00:52;12.4;51.3
78694;SHT31;68029;51.978;5.646;2023-03-04T14:03:26;12.3;51.4
78694;SHT31;68029;51.978;5.646;2023-03-04T14:06:17;12.3;51.4
78694;SHT31;68029;51.978;5.646;2023-03-04T14:08:48;12.2;52.5
78694;SHT31;68029;51.978;5.646;2023-03-04T14:11:24;12.2;52.8
78694;SHT31;68029;51.978;5.646;2023-03-04T14:13:57;12.1;52.7
78694;SHT31;68029;51.978;5.646;2023-03-04T14:16:32;12.0;53.2
78694;SHT31;68029;51.978;5.646;2023-03-04T14:19:06;11.9;52.9
78694;SHT31;68029;51.978;5.646;2023-03-04T14:21:36;11.9;52.8
78694;SHT31;68029;51.978;5.646;2023-03-04T14:24:12;11.9;52.1
78694;SHT31;68029;51.978;5.646;2023-03-04T14:26:42;11.8;52.6
78694;SHT31;68029;51.978;5.646;2023-03-04T14:29:23;11.7;52.8
78694;SHT31;68029;51.978;5.646;2023-03-04T14:31:53;11.7;52.8
78694;SHT31;68029;51.978;5.646;2023-03-04T14:34:29;11.7;51.5
78694;SHT31;68029;51.978;5.646;2023-03-04T14:37:02;11.7;51.2
78694;SHT31;68029;51.978;5.646;2023-03-04T14:39:35;11.6;50.0
78694;SHT31;68029;51.978;5.646;2023-03-04T14:42:09;11.6;50.4
78694;SHT31;68029;51.978;5.646;2023-03-04T14:44:43;11.6;50.1
78694;SHT31;68029;51.978;5.646;2023-03-04T14:47:19;11.5;49.0
78694;SHT31;68029;51.978;5.646;2023-03-04T14:49:53;11.5;47.6
78694;SHT31;68029;51.978;5.646;2023-03-04T14:52:35;11.4;47.5
78694;SHT31;68029;51.978;5.646;2023-03-04T14:55:19;11.4;48.4
78694;SHT31;68029;51.978;5.646;2023-03-04T14:57:51;11.3;48.0
78694;SHT31;68029;51.978;5.646;2023-03-04T15:00:32;11.3;47.8
78694;SHT31;68029;51.978;5.646;2023-03-04T15:03:03;11.2;48.2
78694;SHT31;68029;51.978;5.646;2023-03-04T15:05:36;11.2;49.5
78694;SHT31;68029;51.978;5.646;2023-03-04T15:08:19;11.3;48.7
78694;SHT31;68029;51.978;5.646;2023-03-04T15:10:57;11.6;48.5
78694;SHT31;68029;51.978;5.646;2023-03-04T15:13:41;12.0;47.8
78694;SHT31;68029;51.978;5.646;2023-03-04T15:16:13;12.3;46.3
78694;SHT31;68029;51.978;5.646;2023-03-04T15:18:55;12.5;45.6
78694;SHT31;68029;51.978;5.646;2023-03-04T15:21:33;12.6;45.4
78694;SHT31;68029;51.978;5.646;2023-03-04T15:24:04;12.6;44.5
78694;SHT31;68029;51.978;5.646;2023-03-04T15:26:38;12.6;44.2
78694;SHT31;68029;51.978;5.646;2023-03-04T15:29:16;12.5;44.8
78694;SHT31;68029;51.978;5.646;2023-03-04T15:31:46;12.4;45.4
78694;SHT31;68029;51.978;5.646;2023-03-04T15:34:19;12.3;45.9
78694;SHT31;68029;51.978;5.646;2023-03-04T15:36:50;12.1;46.7
78694;SHT31;68029;51.978;5.646;2023-03-04T15:39:19;11.9;47.6
78694;SHT31;68029;51.978;5.646;2023-03-04T15:41:50;11.8;48.3
78694;SHT31;68029;51.978;5.646;2023-03-04T15:44:19;11.7;48.9
78694;SHT31;68029;51.978;5.646;2023-03-04T15:46:49;11.6;49.3
78694;SHT31;68029;51.978;5.646;2023-03-04T15:49:18;11.6;50.3
78694;SHT31;68029;51.978;5.646;2023-03-04T15:51:48;11.5;50.4
78694;SHT31;68029;51.978;5.646;2023-03-04T15:54:21;11.5;50.7
78694;SHT31;68029;51.978;5.646;2023-03-04T15:56:52;11.4;50.8
78694;SHT31;68029;51.978;5.646;2023-03-04T15:59:25;11.4;51.1
78694;SHT31;68029;51.978;5.646;2023-03-04T16:01:54;11.4;51.4
78694;SHT31;68029;51.978;5.646;2023-03-04T16:04:24;11.4;51.3
78694;SHT31;68029;51.978;5.646;2023-03-04T16:06:54;11.4;50.8
78694;SHT31;68029;51.978;5.646;2023-03-04T16:09:26;11.4;50.0
78694;SHT31;68029;51.978;5.646;2023-03-04T16:11:56;11.4;50.4
78694;SHT31;68029;51.978;5.646;2023-03-04T16:14:28;11.3;50.2
78694;SHT31;68029;51.978;5.646;2023-03-04T16:16:57;11.3;50.2
78694;SHT31;68029;51.978;5.646;2023-03-04T16:19:27;11.2;49.9
78694;SHT31;68029;51.978;5.646;2023-03-04T16:21:57;11.1;50.2
78694;SHT31;68029;51.978;5.646;2023-03-04T16:24:29;11.1;51.1
78694;SHT31;68029;51.978;5.646;2023-03-04T16:27:00;11.1;51.0
78694;SHT31;68029;51.978;5.646;2023-03-04T16:29:30;11.1;50.5
78694;SHT31;68029;51.978;5.646;2023-03-04T16:32:00;11.0;50.0
78694;SHT31;68029;51.978;5.646;2023-03-04T16:34:30;11.0;49.8
78694;SHT31;68029;51.978;5.646;2023-03-04T16:37:06;10.9;50.2
78694;SHT31;68029;51.978;5.646;2023-03-04T16:39:36;10.9;50.2
78694;SHT31;68029;51.978;5.646;2023-03-04T16:42:13;10.8;50.4
78694;SHT31;68029;51.978;5.646;2023-03-04T16:44:45;10.8;50.8
78694;SHT31;68029;51.978;5.646;2023-03-04T16:47:15;10.7;50.8
78694;SHT31;68029;51.978;5.646;2023-03-04T16:49:48;10.7;50.2
78694;SHT31;68029;51.978;5.646;2023-03-04T16:52:22;10.6;50.4